Date,TemperatureHighF,TemperatureAvgF,TemperatureLowF,DewpointHighF,DewpointAvgF,DewpointLowF,HumidityHigh,HumidityAvg,HumidityLow,PressureMaxIn,PressureMinIn,WindSpeedMaxMPH,WindSpeedAvgMPH,GustSpeedMaxMPH,PrecipitationSumIn
2013-1-1,55.6,40.5,33.8,43.9,37.1,33.1,99,89,51,30.31,30.22,9,0,9,0.03
2013-1-2,56.5,38.4,30.6,43.3,35.4,30.0,100,90,50,30.27,30.15,4,0,6,0.02
2013-1-3,57.6,39.9,30.4,46.0,36.5,29.8,98,89,50,30.30,30.19,6,0,6,0.07
2013-1-4,59.2,41.3,33.1,49.1,38.8,32.2,98,91,68,30.32,30.19,4,0,4,0.01
2013-1-5,48.0,41.9,34.3,45.9,41.0,33.6,98,97,87,30.28,30.07,9,0,9,0.05
2013-1-6,57.0,46.2,39.9,51.1,44.8,39.4,100,95,77,30.22,30.09,4,0,6,0.03
2013-1-7,61.3,46.7,37.6,55.4,45.0,37.0,99,94,74,30.27,30.14,6,0,9,0.04
2013-1-8,60.1,48.2,41.9,55.2,47.0,41.4,99,96,83,30.26,30.13,4,0,5,0.02
2013-1-9,50.9,44.5,36.7,50.0,43.1,35.4,99,95,74,30.18,30.00,10,0,13,0.02
2013-1-10,51.4,39.5,32.5,42.3,34.6,32.0,98,84,49,30.23,30.10,10,1,14,0.01
2013-1-11,55.0,41.4,33.3,42.1,36.6,31.6,100,84,56,30.28,30.14,8,1,11,0.01
2013-1-12,52.0,38.4,30.7,40.5,34.1,30.0,98,86,52,30.28,30.14,8,0,9,0.02
2013-1-13,52.5,36.4,28.6,39.2,32.7,27.9,97,88,48,30.30,30.19,6,0,7,0.02
2013-1-14,54.0,37.1,27.9,38.3,32.2,26.6,96,85,45,30.42,30.27,9,0,11,0.01
2013-1-15,56.1,38.6,29.7,42.3,34.7,28.6,100,87,54,30.51,30.41,6,0,7,0.01
2013-1-16,60.1,39.6,30.4,46.6,36.0,29.7,98,88,56,30.48,30.30,2,0,4,0.00
2013-1-17,62.1,40.6,30.6,48.6,37.1,29.5,98,89,58,30.31,30.16,2,0,4,0.01
2013-1-18,63.0,41.2,31.6,48.6,37.6,30.9,98,89,51,30.26,30.14,2,0,2,0.00
2013-1-19,63.3,41.6,30.0,49.1,37.8,29.1,98,88,53,30.28,30.16,2,0,3,0.01
2013-1-20,63.9,41.4,30.9,48.6,37.6,30.2,98,88,52,30.26,30.13,2,0,2,0.01
2013-1-21,64.8,42.2,30.9,48.2,37.4,30.2,98,86,38,30.21,30.09,7,0,8,0.00
2013-1-22,63.0,43.6,31.5,49.1,39.5,30.7,98,87,42,30.14,30.00,7,0,7,0.01
2013-1-23,49.3,46.7,43.2,48.4,45.8,41.9,98,97,95,30.11,29.98,6,0,6,0.38
2013-1-24,59.2,51.4,46.9,56.5,50.6,46.4,99,97,90,30.22,30.09,4,0,5,0.46
2013-1-25,62.6,54.0,49.5,57.0,52.4,48.6,99,95,80,30.22,30.06,7,0,8,0.00
2013-1-26,59.4,48.6,39.0,49.5,43.5,37.4,99,84,50,30.10,29.99,11,1,14,0.00
2013-1-27,38.8,37.2,35.8,37.2,36.0,34.7,96,95,94,30.11,30.09,2,0,4,0.00
2013-2-12,64.0,48.8,33.6,41.7,37.3,32.9,97,70,44,30.36,30.28,7,4,7,0.00
2013-2-13,65.7,51.6,40.5,46.2,43.2,38.8,94,76,44,30.28,30.22,10,1,11,0.00
2013-2-14,71.4,49.1,36.7,54.5,43.0,35.6,98,82,45,30.28,30.15,7,1,8,0.01
2013-2-15,75.0,50.1,35.2,51.1,42.7,34.2,98,80,31,30.29,30.21,4,0,5,0.00
2013-2-16,70.9,49.7,37.4,52.2,43.1,36.3,97,81,39,30.28,30.07,8,1,10,0.01
2013-2-17,64.8,47.6,37.2,48.9,41.1,36.5,98,81,42,30.08,29.97,10,1,13,0.00
2013-2-18,55.2,43.2,35.4,45.3,39.1,34.2,97,86,64,30.04,29.93,9,1,11,0.01
2013-2-19,50.4,41.5,34.0,45.7,37.2,32.4,98,86,55,29.99,29.76,14,1,21,0.05
2013-2-20,60.8,43.3,30.4,43.5,35.0,29.3,97,77,37,30.09,29.88,12,1,16,0.06
2013-2-21,63.7,47.2,36.3,43.7,38.2,30.9,94,75,34,30.20,30.07,12,1,13,0.00
2013-2-22,63.5,48.3,34.9,48.7,40.8,33.8,97,78,36,30.27,30.17,12,1,13,0.00
2013-2-23,60.3,48.8,38.8,44.2,36.7,29.3,95,67,34,30.29,30.18,12,2,15,0.00
2013-2-24,64.9,46.1,32.7,42.1,36.2,31.1,96,74,30,30.30,30.16,13,1,13,0.00
2013-2-25,69.3,47.8,34.2,46.0,33.2,15.1,96,67,13,30.30,30.15,12,1,19,0.01
2013-2-26,67.1,46.0,31.6,42.8,35.7,29.8,95,73,29,30.25,30.15,9,1,12,0.00
2013-2-27,71.1,49.6,32.4,47.7,39.9,30.7,96,74,31,30.38,30.23,9,1,10,0.01
2013-2-28,68.7,54.6,44.2,55.6,49.4,43.2,97,84,59,30.46,30.37,12,1,13,0.01
2013-3-1,73.8,54.3,43.5,55.4,47.6,42.8,98,81,45,30.45,30.25,12,1,14,0.01
2013-3-2,71.4,54.9,43.5,55.2,48.9,42.3,96,82,51,30.27,30.07,9,0,10,0.00
2013-3-3,66.0,53.9,47.3,52.5,48.3,44.6,95,82,57,30.10,30.01,14,1,16,0.00
2013-3-4,55.2,46.9,38.7,47.7,43.4,37.0,95,88,72,30.17,30.08,10,1,13,0.00
2013-3-5,54.9,46.1,38.5,48.4,42.8,37.0,96,89,71,30.10,29.78,18,2,29,0.36
2013-3-6,55.0,47.5,39.9,47.7,43.7,38.8,97,87,63,30.06,29.81,21,3,25,0.24
2013-3-7,56.5,45.5,38.3,45.5,41.0,37.4,98,86,52,30.02,29.90,8,1,10,0.25
2013-3-8,64.6,48.4,36.9,47.8,40.5,35.6,100,78,36,30.06,29.85,10,1,19,0.00
2013-3-9,68.4,49.7,35.2,50.2,42.2,34.0,97,79,42,30.34,30.06,12,1,13,0.00
2013-3-10,71.2,47.5,36.5,49.5,39.8,35.2,97,81,28,30.38,30.27,12,1,15,0.01
2013-3-11,70.2,59.2,42.6,50.2,46.4,41.2,96,66,37,30.29,30.10,12,1,16,0.00
2013-3-12,74.3,54.3,41.7,54.9,46.9,40.6,97,79,48,30.19,30.07,12,1,14,0.00
2013-3-13,81.9,56.8,42.4,56.7,48.7,41.4,97,78,34,30.19,30.07,8,0,12,0.00
2013-3-14,72.9,55.1,45.5,56.8,48.8,44.2,97,81,47,30.18,30.09,9,0,11,0.01
2013-3-15,75.9,55.8,42.4,56.5,47.2,41.4,96,76,40,30.16,30.04,8,0,12,0.00
2013-3-16,77.7,56.7,41.4,52.3,42.8,32.4,97,67,20,30.16,30.03,11,1,20,0.00
2013-3-17,70.2,54.9,41.7,48.7,43.4,34.9,92,68,28,30.16,30.04,10,1,14,0.00
2013-3-18,70.2,52.9,40.1,50.9,44.7,38.5,96,76,43,30.13,30.02,8,0,9,0.00
2013-3-19,57.7,50.1,44.1,53.4,46.5,42.4,95,88,64,30.14,30.07,0,0,0,0.04
2013-3-20,57.7,50.5,46.0,55.9,49.3,44.8,100,96,88,30.16,30.08,8,0,9,0.15
2013-3-21,66.4,50.8,38.7,50.2,43.5,37.9,100,79,45,30.16,30.02,10,1,12,0.27
2013-3-22,67.8,50.2,36.9,46.0,39.6,31.1,97,73,29,30.16,30.04,14,1,14,0.00
2013-3-23,68.7,48.5,36.1,45.3,38.9,34.5,96,75,34,30.17,30.05,14,1,18,0.00
2013-3-26,64.2,55.0,45.9,49.3,46.3,43.5,92,74,57,29.99,29.94,13,2,14,0.01
2013-3-27,58.1,51.7,45.3,54.3,48.5,43.3,94,89,77,30.03,29.96,10,1,12,0.00
2013-3-28,61.7,53.7,49.8,57.2,51.6,48.2,97,93,81,30.11,30.02,0,0,0,0.10
2013-3-29,77.7,58.6,47.7,58.6,52.0,46.9,98,82,45,30.12,30.02,12,1,16,0.00
2013-3-30,69.6,56.1,50.5,54.5,51.4,48.6,96,85,50,30.09,30.01,16,1,19,0.05
2013-3-31,60.1,55.3,52.2,57.4,53.9,51.3,97,95,84,30.09,30.02,12,0,15,0.20
2013-4-1,64.8,55.2,48.7,54.9,51.8,47.3,98,89,67,30.17,30.06,11,1,13,0.32
2013-4-2,67.1,53.1,46.2,57.2,49.2,45.3,98,87,61,30.20,30.10,13,2,14,0.00
2013-4-3,76.6,55.6,46.2,57.7,49.7,45.1,97,83,50,30.16,30.00,12,1,18,0.00
2013-4-4,58.5,53.3,49.6,56.8,52.1,47.5,100,96,90,30.13,29.98,12,1,16,0.26
2013-4-5,63.0,56.4,52.3,55.6,53.2,51.4,98,90,71,30.20,30.12,12,2,14,0.01
2013-4-7,63.0,55.4,48.9,53.1,48.2,45.0,95,78,65,30.04,29.84,14,4,18,0.06
2013-4-8,69.6,55.6,46.0,45.3,39.2,33.8,90,57,28,30.08,29.83,14,3,18,0.08
2013-4-9,80.1,58.4,40.3,51.1,41.8,29.7,95,64,19,30.15,30.05,11,1,16,0.00
2013-4-10,86.9,64.9,46.4,61.0,49.7,43.3,95,65,23,30.19,30.04,14,1,22,0.00
2013-4-11,78.1,62.8,48.7,51.3,47.3,42.8,87,60,31,30.08,29.83,10,2,14,0.00
2013-4-12,77.4,57.7,43.9,54.1,47.0,41.7,94,71,32,29.93,29.81,18,1,18,0.00
2013-4-13,78.1,59.8,44.6,52.9,42.7,34.3,94,60,26,29.92,29.80,12,1,18,0.00
2013-4-14,72.1,55.6,41.2,47.3,41.6,27.7,91,64,23,29.94,29.86,13,2,20,0.00
2013-4-15,61.9,52.3,42.1,43.7,37.1,30.0,91,60,35,29.94,29.87,14,3,25,0.00
2013-4-18,75.0,66.0,51.1,50.5,43.1,34.5,86,48,26,30.27,30.18,14,2,19,0.00
2013-4-19,82.9,62.6,44.6,54.7,47.4,42.4,94,63,27,30.25,30.08,12,1,16,0.00
2013-4-20,80.1,63.9,47.5,50.5,45.9,37.2,89,56,24,30.14,29.97,13,1,15,0.00
2013-4-21,81.3,55.5,46.2,57.9,48.8,44.2,96,81,36,30.05,30.01,7,0,7,0.00
2013-4-23,81.9,64.9,47.5,52.2,44.2,31.8,88,51,17,29.93,29.93,13,3,15,0.00
2013-4-24,60.4,50.9,44.4,49.5,45.9,42.4,94,83,66,0.00,40.00,15,3,18,0.00
2013-4-25,62.4,53.9,47.7,50.2,47.3,45.0,91,79,63,0.00,40.00,13,2,19,0.00
2013-4-26,67.5,53.5,45.3,54.0,48.1,43.3,94,83,60,0.00,40.00,10,-2,12,0.00
2013-4-27,74.7,57.2,47.7,57.2,50.1,45.7,94,79,52,0.00,40.00,11,1,13,0.00
2013-4-28,85.1,63.5,46.4,59.0,51.7,45.3,100,71,34,0.00,40.00,13,1,14,0.00
2013-4-29,92.1,69.8,51.1,59.5,52.1,45.7,95,60,26,0.00,40.00,9,1,13,0.00
2013-4-30,88.3,68.5,49.8,53.4,45.7,31.1,88,51,13,0.00,40.00,8,1,10,0.00
2013-5-1,89.1,65.8,45.5,50.4,38.2,16.5,88,48,8,0.00,40.00,12,1,15,0.00
2013-5-2,91.6,66.1,45.3,51.8,40.8,23.9,89,50,10,0.00,40.00,14,1,18,0.00
2013-5-3,91.2,65.7,45.1,51.1,43.4,37.0,86,51,17,0.00,40.00,14,1,19,0.00
2013-5-4,86.5,62.1,47.3,56.1,47.8,35.6,94,65,17,0.00,40.00,14,2,20,0.00
2013-5-5,62.8,58.2,55.6,53.2,50.6,49.5,83,76,66,0.00,40.00,15,1,19,0.00
2013-5-6,69.1,59.9,51.4,54.3,51.1,48.2,93,74,52,0.00,40.00,15,-2,19,0.00
2013-5-7,69.1,57.8,50.2,56.1,51.5,48.2,94,81,57,0.00,40.00,14,2,19,0.00
2013-5-8,64.8,55.6,51.1,54.7,50.8,48.7,94,85,68,0.00,40.00,10,1,12,0.00
2013-5-9,66.9,56.3,49.1,55.4,50.5,47.1,94,82,63,0.00,40.00,15,2,19,0.00
2013-5-10,76.5,58.8,49.6,60.1,52.1,47.1,94,80,54,0.00,40.00,12,1,13,0.00
2013-5-11,83.8,62.5,48.7,64.9,52.7,47.3,95,74,42,0.00,40.00,12,1,15,0.00
2013-5-12,78.1,62.3,46.9,61.0,52.7,45.0,95,73,45,0.00,40.00,13,1,16,0.00
2013-5-13,87.6,65.9,48.6,62.1,52.9,46.6,95,67,32,0.00,40.00,11,1,14,0.00
2013-5-14,90.7,67.7,51.1,58.5,50.0,41.0,92,59,19,0.00,40.00,9,1,12,0.00
2013-5-15,82.0,62.7,46.6,52.7,47.3,42.1,92,61,28,0.00,40.00,13,1,15,0.00
2013-5-16,73.2,62.4,52.9,55.2,50.9,46.6,84,67,46,0.00,40.00,20,2,20,0.00
2013-5-17,69.8,57.8,45.3,51.6,47.5,42.8,92,70,49,0.00,40.00,14,2,18,0.00
2013-5-18,82.2,63.2,43.9,52.9,47.0,41.9,94,61,28,0.00,40.00,10,1,22,0.00
2013-5-19,82.4,65.7,47.7,53.4,46.7,39.6,91,56,22,0.00,40.00,15,1,18,0.00
2013-5-20,86.2,66.3,49.3,59.9,48.4,38.5,93,60,20,0.00,40.00,12,2,16,0.00
2013-5-21,74.1,60.8,49.5,50.7,44.6,33.4,92,59,29,0.00,40.00,16,2,20,0.00
2013-5-22,70.5,57.3,46.2,43.7,35.8,28.8,67,46,23,0.00,40.00,15,2,16,0.00
2013-5-23,71.8,57.9,42.6,46.4,41.8,38.8,89,58,35,0.00,40.00,15,2,19,0.00
2013-5-24,75.4,58.6,41.7,50.0,44.7,39.2,93,63,34,0.00,40.00,18,2,18,0.00
2013-5-25,76.3,59.9,43.9,50.4,46.2,41.2,92,64,38,0.00,40.00,12,2,13,0.00
2013-5-26,70.7,60.5,49.5,54.3,50.5,46.6,94,71,52,0.00,40.00,15,3,21,0.00
2013-5-27,63.0,55.5,48.4,57.2,52.0,45.3,96,88,74,0.00,40.00,10,1,14,0.16
2013-5-28,72.3,61.6,55.6,59.2,55.3,51.3,97,81,59,0.00,40.00,14,2,15,0.04
2013-5-29,78.6,64.3,55.8,57.0,53.3,47.5,88,70,40,0.00,40.00,14,2,20,0.00
2013-5-30,83.1,63.9,45.5,52.3,46.9,42.3,94,59,28,0.00,40.00,11,2,15,0.00
2013-5-31,88.3,67.8,47.5,57.0,50.0,44.4,92,59,24,0.00,40.00,13,1,14,0.00
2013-6-1,95.7,73.2,51.6,58.6,52.6,47.8,91,55,22,0.00,40.00,12,0,13,0.00
2013-6-2,88.9,70.5,51.6,60.1,52.4,48.0,89,57,27,0.00,40.00,10,1,12,0.00
2013-6-3,67.8,58.0,51.4,54.7,51.2,48.6,90,79,60,0.00,40.00,19,3,22,0.00
2013-6-4,63.3,56.7,53.4,53.8,51.2,49.6,88,82,69,0.00,40.00,14,3,16,0.00
2013-6-5,69.6,57.6,52.2,58.6,51.2,49.1,90,80,60,0.00,40.00,12,2,15,0.00
2013-6-6,75.0,59.4,51.1,58.8,52.2,48.0,91,78,55,0.00,40.00,13,2,13,0.00
2013-6-7,90.7,67.4,51.4,63.0,55.5,49.5,94,70,33,0.00,40.00,8,1,11,0.00
2013-6-8,86.7,65.5,55.0,62.6,55.5,51.8,92,73,41,0.00,40.00,16,2,18,0.00
2013-6-9,63.1,58.5,56.1,55.0,53.8,52.3,90,85,73,0.00,40.00,18,2,19,0.00
2013-6-10,62.4,58.9,56.3,57.6,55.4,53.4,93,88,79,0.00,40.00,4,0,8,0.20
2013-6-11,75.2,62.8,54.1,59.9,55.4,51.3,95,79,50,0.00,40.00,11,1,13,0.02
2013-6-12,85.8,65.0,46.8,54.9,44.9,33.6,97,57,16,0.00,40.00,15,1,18,0.00
2013-6-13,84.4,65.8,46.2,52.5,45.8,40.3,91,54,25,0.00,40.00,13,2,16,0.00
2013-6-14,84.9,67.2,50.5,55.6,47.6,32.7,91,56,17,0.00,40.00,14,2,19,0.00
2013-6-15,79.9,64.3,48.9,56.3,51.6,46.6,93,66,41,0.00,40.00,11,1,14,0.00
2013-6-16,86.5,67.3,47.8,56.5,50.1,45.5,93,60,26,0.00,40.00,13,2,15,0.00
2013-6-17,80.8,64.6,50.4,58.3,52.5,46.6,90,67,42,0.00,40.00,15,2,19,0.00
2013-6-18,73.2,62.2,50.0,54.1,49.5,44.2,94,66,39,0.00,40.00,19,2,21,0.00
2013-6-19,79.3,64.1,48.7,52.3,48.1,43.0,88,59,34,0.00,40.00,13,2,14,0.00
2013-6-20,82.8,65.3,48.4,52.9,48.0,44.6,91,58,28,0.00,40.00,15,2,16,0.00
2013-6-21,84.6,67.3,48.9,54.9,48.9,43.3,91,57,26,0.00,40.00,13,2,15,0.00
2013-6-22,90.0,70.8,51.3,54.5,50.1,43.9,92,53,23,0.00,40.00,12,1,15,0.00
2013-6-23,69.4,63.3,58.3,60.6,56.7,52.0,90,79,65,0.00,40.00,12,2,14,0.00
2013-6-24,61.9,58.9,56.8,57.7,56.0,54.1,97,90,82,0.00,40.00,8,1,10,0.16
2013-6-25,62.4,60.4,58.1,61.5,59.6,57.0,98,97,96,0.00,40.00,6,0,9,0.66
2013-6-26,77.7,66.1,60.3,66.6,62.4,58.6,98,89,63,0.00,40.00,9,1,11,0.38
2013-6-27,86.5,69.6,56.8,67.8,61.7,55.9,98,78,48,0.00,40.00,11,1,12,0.19
2013-6-28,103.1,77.2,59.4,70.7,61.9,49.3,97,66,19,0.00,40.00,10,1,10,0.07
2013-6-29,102.2,79.0,59.2,68.5,62.0,56.8,94,62,26,0.00,40.00,11,1,13,0.02
2013-6-30,96.3,75.9,58.6,66.7,60.8,55.9,93,64,34,0.00,40.00,11,1,11,0.00
2013-7-1,97.5,76.1,57.9,68.2,61.8,55.6,94,66,32,0.00,40.00,8,1,10,0.00
2013-7-2,89.1,72.2,60.3,68.9,61.3,55.9,87,70,47,0.00,40.00,15,2,18,0.00
2013-7-3,86.4,65.7,58.5,67.8,58.7,55.8,91,80,52,0.00,40.00,16,1,18,0.00
2013-7-9,87.1,73.0,55.8,62.2,54.5,49.8,85,56,29,0.00,40.00,10,2,14,0.00
2013-7-10,77.2,60.4,51.4,60.8,52.0,48.9,93,76,47,0.00,40.00,12,2,14,0.00
2013-7-11,73.2,58.8,50.7,58.1,52.0,48.2,94,80,56,0.00,40.00,10,1,13,0.00
2013-7-12,73.6,60.3,52.5,59.0,53.5,50.0,92,80,58,0.00,40.00,11,1,13,0.00
2013-7-13,78.6,62.8,50.5,61.2,53.6,48.9,95,75,46,0.00,40.00,11,2,12,0.00
2013-7-14,75.4,59.9,51.6,60.1,52.9,49.3,94,80,54,0.00,40.00,11,2,13,0.00
2013-7-15,67.3,56.4,51.1,55.8,51.5,48.7,94,84,65,0.00,40.00,11,2,14,0.00
2013-7-16,67.1,58.2,53.4,57.9,53.7,50.7,94,85,71,0.00,40.00,13,1,15,0.01
2013-7-17,73.6,60.3,51.4,60.1,54.5,49.8,95,82,59,0.00,40.00,10,2,12,0.00
2013-7-18,78.4,62.8,53.2,60.1,55.2,51.4,96,78,52,0.00,40.00,12,1,14,0.00
2013-7-19,83.8,65.6,52.2,63.5,55.6,50.5,95,73,43,0.00,40.00,10,1,12,0.00
2013-7-20,82.2,65.4,51.4,63.0,54.9,49.3,93,71,46,0.00,40.00,10,1,14,0.00
2013-7-21,81.9,63.3,53.1,61.2,53.8,50.0,92,73,45,0.00,40.00,11,2,13,0.00
2013-7-22,82.4,64.2,50.9,60.6,54.8,48.6,93,74,44,0.00,40.00,13,1,14,0.00
2013-7-23,76.3,65.9,58.8,61.0,57.0,54.3,88,74,53,0.00,40.00,11,1,13,0.00
2013-7-24,78.6,64.9,54.7,60.3,55.9,52.3,94,75,52,0.00,40.00,11,2,11,0.00
2013-7-25,73.4,61.8,54.3,59.0,54.5,51.8,92,78,58,0.00,40.00,12,2,13,0.00
2013-7-26,73.8,60.4,53.1,59.9,53.9,50.7,93,80,59,0.00,40.00,11,2,13,0.00
2013-7-27,72.9,59.6,52.9,59.5,53.7,50.7,94,82,60,0.00,40.00,11,2,12,0.00
2013-7-28,72.7,59.0,52.5,59.4,53.2,50.0,94,82,61,0.00,40.00,11,2,15,0.00
2013-7-29,67.5,57.7,54.0,57.7,53.2,50.7,92,85,70,0.00,40.00,12,1,15,0.00
2013-7-30,67.5,57.9,53.1,58.3,53.4,51.3,94,85,70,0.00,40.00,11,1,14,0.00
2013-7-31,75.4,60.9,52.3,59.7,54.2,50.0,93,80,56,0.00,40.00,11,1,12,0.00
2013-8-1,82.6,64.0,48.7,60.3,53.3,46.8,96,71,43,0.00,40.00,10,1,12,0.00
2013-8-2,82.0,65.5,48.7,58.3,52.3,46.6,94,67,35,0.00,40.00,13,1,18,0.00
2013-8-3,74.1,59.5,50.4,58.8,52.5,48.4,94,79,59,0.00,40.00,13,2,14,0.00
2013-8-4,68.9,57.5,52.3,56.7,52.3,50.2,93,84,61,0.00,40.00,12,2,14,0.00
2013-8-5,72.3,57.8,52.2,58.6,52.2,49.3,92,83,61,0.00,40.00,12,2,14,0.00
2013-8-6,67.5,57.8,51.6,56.5,52.4,49.1,92,83,66,0.00,40.00,16,2,18,0.00
2013-8-7,67.6,60.2,54.1,57.9,54.9,51.8,93,83,70,0.00,40.00,16,2,16,0.00
2013-8-8,70.2,57.8,52.3,59.4,53.6,50.4,94,87,67,0.00,40.00,11,1,18,0.00
2013-8-9,72.9,61.8,55.2,59.7,55.0,52.3,92,79,62,0.00,40.00,19,2,19,0.00
2013-8-10,70.7,60.6,55.0,59.5,55.2,52.2,93,83,66,0.00,40.00,12,2,15,0.00
2013-8-11,76.8,61.7,54.7,62.8,55.8,52.0,95,82,56,0.00,40.00,12,1,14,0.00
2013-8-12,76.5,60.4,53.1,61.2,54.3,50.7,95,82,54,0.00,40.00,11,1,12,0.00
2013-8-13,84.7,65.6,51.4,62.2,55.0,49.6,95,72,38,0.00,40.00,12,1,14,0.00
2013-8-14,90.0,68.3,51.1,61.3,55.9,49.1,95,69,32,0.00,40.00,11,1,12,0.00
2013-8-15,82.9,67.6,55.2,66.2,60.1,53.2,94,79,52,0.00,40.00,13,2,16,0.00
2013-8-16,82.0,67.7,57.4,65.8,59.4,55.6,96,77,53,0.00,40.00,14,2,15,0.00
2013-8-17,88.7,68.8,54.0,64.0,57.6,52.0,95,72,39,0.00,40.00,10,1,13,0.00
2013-8-27,81.0,71.5,59.2,60.6,57.8,55.4,88,64,43,0.00,40.00,12,3,18,0.00
2013-8-28,76.3,64.4,54.3,64.2,58.9,52.7,95,83,63,0.00,40.00,13,2,22,0.00
2013-8-29,78.1,66.6,58.5,64.9,60.8,56.7,95,83,63,0.00,40.00,12,2,15,0.00
2013-8-30,89.1,71.3,56.7,65.5,59.9,55.4,97,72,40,0.00,40.00,13,1,14,0.00
2013-8-31,80.4,65.1,54.5,61.0,56.8,52.3,95,77,48,0.00,40.00,11,1,16,0.00
2013-9-1,75.7,63.4,53.6,62.4,57.0,52.0,95,81,53,0.00,40.00,13,2,18,0.00
2013-9-2,77.4,65.7,55.4,65.1,59.6,53.8,95,82,61,0.00,40.00,15,2,18,0.00
2013-9-3,76.8,64.4,53.4,61.0,56.7,52.2,96,78,47,0.00,40.00,13,2,18,0.00
2013-9-4,80.2,65.4,52.3,61.5,56.6,50.7,96,76,51,0.00,40.00,13,1,15,0.01
2013-9-5,84.0,67.4,52.3,59.9,54.8,50.4,95,68,37,0.00,40.00,13,1,18,0.00
2013-9-6,90.0,69.0,52.2,60.1,53.6,49.3,93,64,29,0.00,40.00,10,1,14,0.00
2013-9-7,93.4,69.9,51.8,61.3,53.0,48.9,92,62,25,0.00,40.00,18,1,18,0.00
2013-9-8,88.0,67.6,52.3,59.9,53.6,50.0,94,66,30,0.00,40.00,9,1,12,0.00
2013-9-9,89.2,66.3,52.0,59.9,53.8,49.5,93,69,31,0.00,40.00,13,2,13,0.00
2013-9-10,65.3,60.8,55.9,60.1,57.3,53.4,94,88,81,0.00,40.00,10,1,15,0.00
2013-9-11,67.3,63.3,61.0,61.3,60.1,58.8,96,90,79,0.00,40.00,7,1,9,0.02
2013-9-12,77.0,64.4,57.2,64.0,59.0,54.9,93,83,63,0.00,40.00,12,1,15,0.00
2013-9-13,81.0,64.7,55.9,63.3,57.3,53.2,96,79,51,0.00,40.00,10,1,11,0.00
2013-9-14,77.7,62.1,53.2,61.9,55.4,51.1,95,80,56,0.00,40.00,9,1,11,0.00
2013-9-15,74.8,61.4,52.2,59.5,55.3,50.2,96,82,57,0.00,40.00,14,2,19,0.00
2013-9-16,82.9,65.3,54.0,62.2,56.3,52.7,97,76,45,0.00,40.00,12,1,13,0.00
2013-9-17,80.4,65.1,50.5,56.7,51.8,48.7,96,66,38,0.00,40.00,15,1,19,0.00
2013-9-18,81.9,64.2,50.2,55.8,50.4,43.3,93,66,27,0.00,40.00,14,1,19,0.00
2013-9-19,85.8,63.7,47.3,55.0,48.6,42.4,93,65,23,0.00,40.00,12,1,13,0.00
2013-9-20,75.9,59.9,45.5,61.9,54.9,43.5,96,84,58,0.00,40.00,19,2,20,0.11
2013-9-21,70.2,61.2,52.9,62.8,56.9,51.3,98,87,60,0.00,40.00,12,1,18,0.30
2013-9-22,75.4,60.3,49.5,59.7,52.8,48.6,100,79,49,0.00,40.00,13,1,15,0.05
2013-9-23,79.9,63.9,50.7,62.8,56.5,49.3,97,79,54,0.00,40.00,14,1,16,0.00
2013-9-24,79.3,63.4,53.1,55.8,52.3,48.2,96,71,36,0.00,40.00,14,1,16,0.01
2013-9-25,72.5,59.3,47.5,51.1,46.4,41.4,95,66,33,0.00,40.00,12,2,18,0.00
2013-9-26,76.3,59.1,43.7,50.5,44.4,38.7,92,63,28,0.00,40.00,13,1,14,0.00
2013-9-27,77.9,58.8,43.2,51.4,44.1,35.8,95,66,23,0.00,40.00,12,1,15,0.00
2013-9-28,79.3,59.5,44.2,56.5,48.1,40.1,94,71,30,0.00,40.00,15,1,18,0.00
2013-9-29,66.0,59.5,54.3,62.4,57.6,52.3,97,93,87,0.00,40.00,8,0,10,0.08
2013-9-30,71.1,62.0,50.7,67.3,60.4,49.6,98,95,84,0.00,40.00,6,0,9,0.06
2013-10-1,79.2,58.8,46.0,58.5,49.6,44.8,98,77,31,0.00,40.00,9,1,10,0.03
2013-10-2,80.1,59.5,46.9,55.4,46.5,30.6,96,68,18,0.00,40.00,9,1,12,0.01
2013-10-3,77.4,60.2,43.9,45.0,37.4,19.9,91,51,12,0.00,40.00,13,2,18,0.00
2013-10-4,83.8,65.2,48.9,45.7,34.8,22.6,77,39,11,0.00,40.00,11,1,15,0.00
2013-10-5,86.4,59.0,39.9,45.9,38.7,27.9,89,57,13,0.00,40.00,10,1,12,0.00
2013-10-6,85.6,57.9,39.7,52.9,42.0,33.1,92,63,16,0.00,40.00,1,0,7,0.00
2013-10-7,48.7,44.0,40.6,43.2,40.0,37.6,91,86,80,0.00,40.00,0,0,0,0.00
2013-10-11,65.3,56.3,46.0,51.6,48.7,43.7,93,77,57,0.00,40.00,9,2,12,0.00
2013-10-12,68.7,54.2,42.3,52.7,47.0,41.2,97,79,53,0.00,40.00,10,1,13,0.00
2013-10-13,73.6,55.2,42.8,54.0,45.9,41.2,96,75,36,0.00,40.00,13,1,15,0.00
2013-10-14,78.1,55.1,39.6,50.7,43.0,37.9,96,70,29,0.00,40.00,11,1,13,0.01
2013-10-15,81.9,54.4,38.5,49.1,40.3,36.1,95,69,20,0.00,40.00,12,1,14,0.00
2013-10-16,77.7,77.6,77.5,41.9,40.5,39.0,28,26,25,0.00,40.00,0,0,10,0.00
2013-10-17,80.4,65.1,46.6,47.3,41.3,35.2,87,48,20,0.00,40.00,10,1,13,0.00
2013-10-18,78.1,55.3,39.4,48.0,42.7,37.6,95,68,28,0.00,40.00,10,1,14,0.00
2013-10-19,82.9,56.7,39.2,50.9,44.1,37.6,98,69,26,0.00,40.00,9,1,11,0.00
2013-10-20,75.0,54.5,40.6,51.8,44.3,39.0,96,74,31,0.00,40.00,12,1,14,0.00
2013-10-21,73.8,53.5,41.7,54.3,45.8,40.6,97,79,39,0.00,40.00,8,1,11,0.00
2013-10-22,75.7,54.3,43.5,54.1,47.2,42.4,97,80,45,0.00,40.00,10,1,10,0.00
2013-10-23,74.8,52.7,43.7,56.3,47.1,42.6,97,84,49,0.00,40.00,10,1,11,0.00
2013-10-24,64.2,51.4,45.0,51.8,47.2,43.3,95,86,62,0.00,40.00,8,1,9,0.00
2013-10-25,69.8,52.1,42.4,53.8,46.9,41.4,97,84,55,0.00,40.00,9,0,11,0.00
2013-10-26,78.3,54.3,39.6,55.8,45.6,38.3,97,77,34,0.00,40.00,7,0,10,0.01
2013-10-27,62.8,49.1,41.5,51.3,44.9,40.5,98,86,63,0.00,40.00,11,1,15,0.00
2013-10-28,66.4,51.3,39.4,48.6,43.6,37.8,96,77,48,0.00,40.00,10,1,11,0.01
2013-10-29,63.0,51.5,42.6,49.5,45.8,41.0,95,82,58,0.00,40.00,10,1,13,0.00
2013-10-30,65.8,49.6,39.4,50.2,43.1,38.1,97,81,49,0.00,40.00,12,1,15,0.00
2013-10-31,74.5,51.4,37.0,50.9,43.4,35.6,96,78,40,0.00,40.00,10,0,10,0.01
2013-11-1,79.5,54.2,39.6,52.0,45.2,38.3,100,76,33,0.00,40.00,6,0,7,0.00
2013-11-2,75.2,55.3,40.8,54.9,44.9,38.3,100,71,43,0.00,40.00,11,1,15,0.00
2013-11-3,66.0,51.1,37.6,40.6,35.8,28.2,91,61,26,0.00,40.00,8,1,12,0.00
2013-11-4,72.9,49.9,34.2,41.7,34.4,26.8,100,64,19,0.00,40.00,19,1,19,0.00
2013-11-5,75.7,51.7,36.1,46.0,40.1,33.8,92,70,28,0.00,40.00,12,0,15,0.00
2013-11-6,76.8,55.2,41.2,51.3,44.9,39.4,95,72,34,0.00,40.00,5,0,7,0.00
2013-11-7,72.0,55.3,45.1,48.9,45.2,40.8,93,73,34,0.00,40.00,11,1,12,0.00
2013-11-8,75.4,52.2,41.0,55.2,44.9,39.2,100,80,30,0.00,40.00,11,1,14,0.00
2013-11-9,75.4,51.0,36.5,52.7,43.3,35.2,100,79,37,0.00,40.00,8,0,12,0.01
2013-11-10,65.1,49.9,41.2,52.3,45.4,39.6,95,86,62,0.00,40.00,11,1,14,0.01
2013-11-11,67.6,54.1,43.3,51.8,48.0,42.1,95,81,52,0.00,40.00,5,0,6,0.00
2013-11-12,73.8,57.4,48.0,53.1,49.4,46.0,93,77,43,0.00,40.00,10,1,18,0.00
2013-11-13,76.3,54.4,41.7,57.4,48.7,40.5,97,83,50,0.00,40.00,10,1,11,0.00
2013-11-14,66.0,51.5,44.4,55.8,47.3,40.1,97,86,63,0.00,40.00,7,0,8,0.01
2013-11-15,66.7,49.4,38.5,46.0,41.1,36.7,95,76,38,0.00,40.00,12,1,12,0.00
2013-11-16,67.6,49.6,36.1,48.6,42.5,34.9,96,80,46,0.00,40.00,12,1,16,0.01
2013-11-17,63.9,48.3,37.9,49.8,43.6,36.7,97,85,56,0.00,40.00,6,0,8,0.00
2013-11-18,57.7,47.5,40.1,49.5,44.1,39.0,100,88,73,0.00,40.00,8,1,10,0.03
2013-11-19,55.8,52.7,48.6,54.9,51.7,47.1,98,97,95,0.00,40.00,5,0,7,0.20
2013-11-20,58.5,54.3,50.2,57.7,53.6,49.3,98,97,93,0.00,40.00,8,1,10,0.14
2013-11-21,65.1,55.1,49.5,52.2,41.5,20.3,98,70,20,0.00,40.00,27,2,27,0.07
2013-11-30,68.4,54.0,41.9,52.9,47.1,40.6,95,79,52,0.00,40.00,5,0,9,0.02
2013-12-1,69.6,48.6,36.7,55.2,44.4,35.6,97,87,56,0.00,40.00,5,0,7,0.03
2013-12-2,66.4,49.4,38.1,54.7,45.4,37.0,98,87,56,0.00,40.00,9,0,12,0.02
2013-12-3,56.7,48.7,34.9,50.5,35.5,25.7,95,63,32,0.00,40.00,16,1,25,0.02
2013-12-4,52.5,37.3,28.9,36.5,30.6,27.3,96,80,38,0.00,40.00,13,0,13,0.49
2013-12-5,50.4,34.6,26.1,37.4,29.4,24.3,95,83,45,0.00,40.00,10,0,12,0.59
2013-12-6,45.3,35.9,25.5,41.0,33.0,24.1,97,90,53,0.00,40.00,5,0,6,0.34
2013-12-7,47.7,36.8,28.8,41.0,31.9,25.5,100,85,43,0.00,40.00,15,1,15,0.29
2013-12-8,48.0,33.0,26.6,34.3,27.1,21.6,96,82,35,0.00,40.00,5,0,5,0.00
2013-12-9,52.3,32.9,23.4,34.7,28.0,21.6,95,84,44,0.00,40.00,4,0,6,0.01
2013-12-10,54.1,34.4,24.4,38.3,30.1,23.0,96,86,49,0.00,40.00,2,0,3,0.01
2013-12-11,57.7,37.0,27.0,41.5,32.6,25.7,96,86,52,0.00,40.00,2,0,4,0.00
2013-12-12,59.5,38.1,27.1,42.4,33.7,25.7,97,86,49,0.00,40.00,2,0,4,0.01
2013-12-13,61.3,39.1,28.2,45.0,34.7,27.0,97,86,52,0.00,40.00,4,0,5,0.00
2013-12-14,61.2,40.4,29.5,48.4,36.8,28.2,97,88,60,0.00,40.00,3,0,4,0.01
2013-12-15,62.1,40.6,30.2,48.7,37.3,29.1,97,89,60,0.00,40.00,7,0,8,0.01
2013-12-16,63.9,42.2,31.5,50.2,38.6,30.4,97,88,59,0.00,40.00,5,0,6,0.00
2013-12-17,61.2,41.8,31.8,50.0,38.9,30.7,97,90,66,0.00,40.00,0,0,0,0.01
2013-12-18,60.4,43.3,34.3,49.5,40.4,33.1,97,90,64,0.00,40.00,0,0,0,0.01
2013-12-19,63.7,47.7,34.0,40.6,35.7,26.6,92,68,25,0.00,40.00,15,1,15,0.00
2013-12-20,62.1,40.7,29.1,39.6,33.6,27.7,96,79,38,0.00,40.00,4,0,5,0.00
2013-12-21,68.2,49.0,37.2,52.2,44.1,34.9,97,84,54,0.00,40.00,8,0,9,0.00
2013-12-22,65.5,44.7,33.6,52.2,40.8,32.5,97,88,56,0.00,40.00,5,0,5,0.01
2013-12-23,66.0,44.4,32.7,52.7,40.8,31.6,97,88,60,0.00,40.00,2,0,3,0.01
2013-12-24,67.5,45.6,35.2,53.6,41.9,34.0,99,88,60,0.00,40.00,4,0,5,0.00
2013-12-25,63.1,43.2,34.0,51.3,39.4,32.9,98,88,54,0.00,40.00,1,0,4,0.01
2013-12-26,64.6,41.7,30.2,47.3,37.1,29.1,97,86,51,0.00,40.00,4,0,5,0.01
2013-12-27,54.1,40.1,31.3,47.3,37.6,30.0,97,91,71,0.00,40.00,4,0,5,0.01
2013-12-28,62.4,40.9,29.7,49.3,37.4,28.6,100,89,59,0.00,40.00,2,0,3,0.00
2013-12-29,64.6,41.3,29.7,43.7,35.7,28.6,97,83,45,0.00,40.00,2,0,4,0.01
2013-12-30,64.0,42.0,29.3,43.9,36.0,28.0,97,82,38,0.00,40.00,5,0,6,0.01
2013-12-31,62.2,42.7,34.3,47.5,38.9,33.1,97,88,55,0.00,40.00,5,0,7,0.00
2014-1-1,63.7,42.3,30.6,50.4,38.5,29.5,97,88,61,0.00,40.00,4,0,5,0.01
2014-1-2,61.2,43.9,32.5,50.0,40.2,31.5,97,88,59,0.00,40.00,2,0,4,0.00